sensor_id;sensor_type;location;lat;lon;timestamp;temperature;humidity
70695;DHT22;58269;52.246;21.104;2022-12-07T00:00:50;7.82;61.61
70695;DHT22;58269;52.246;21.104;2022-12-07T00:02:52;7.85;61.57
70695;DHT22;58269;52.246;21.104;2022-12-07T00:04:54;7.82;61.55
70695;DHT22;58269;52.246;21.104;2022-12-07T00:06:55;7.86;61.57
70695;DHT22;58269;52.246;21.104;2022-12-07T00:08:57;7.85;61.61
70695;DHT22;58269;52.246;21.104;2022-12-07T00:11:06;7.82;61.59
70695;DHT22;58269;52.246;21.104;2022-12-07T00:13:07;7.82;61.59
70695;DHT22;58269;52.246;21.104;2022-12-07T00:15:09;7.88;61.67
70695;DHT22;58269;52.246;21.104;2022-12-07T00:17:10;7.82;61.62
70695;DHT22;58269;52.246;21.104;2022-12-07T00:19:12;7.80;61.62
70695;DHT22;58269;52.246;21.104;2022-12-07T00:21:23;7.82;61.59
70695;DHT22;58269;52.246;21.104;2022-12-07T00:23:25;7.82;61.68
70695;DHT22;58269;52.246;21.104;2022-12-07T00:25:26;7.80;61.76
70695;DHT22;58269;52.246;21.104;2022-12-07T00:27:27;7.81;61.72
70695;DHT22;58269;52.246;21.104;2022-12-07T00:29:28;7.72;61.88
70695;DHT22;58269;52.246;21.104;2022-12-07T00:31:32;7.71;61.83
70695;DHT22;58269;52.246;21.104;2022-12-07T00:33:36;7.72;61.98
70695;DHT22;58269;52.246;21.104;2022-12-07T00:35:37;7.69;61.98
70695;DHT22;58269;52.246;21.104;2022-12-07T00:37:39;7.68;62.05
70695;DHT22;58269;52.246;21.104;2022-12-07T00:39:40;7.66;62.00
70695;DHT22;58269;52.246;21.104;2022-12-07T00:41:41;7.61;62.23
70695;DHT22;58269;52.246;21.104;2022-12-07T00:43:44;7.59;62.15
70695;DHT22;58269;52.246;21.104;2022-12-07T00:45:45;7.62;62.12
70695;DHT22;58269;52.246;21.104;2022-12-07T00:47:46;7.66;62.16
70695;DHT22;58269;52.246;21.104;2022-12-07T00:49:47;7.69;62.10
70695;DHT22;58269;52.246;21.104;2022-12-07T00:51:49;7.72;62.10
70695;DHT22;58269;52.246;21.104;2022-12-07T00:53:50;7.69;62.25
70695;DHT22;58269;52.246;21.104;2022-12-07T00:55:52;7.77;62.13
70695;DHT22;58269;52.246;21.104;2022-12-07T00:57:57;7.80;62.09
70695;DHT22;58269;52.246;21.104;2022-12-07T00:59:58;7.82;62.13
70695;DHT22;58269;52.246;21.104;2022-12-07T01:02:01;7.89;62.10
70695;DHT22;58269;52.246;21.104;2022-12-07T01:04:02;7.92;62.06
70695;DHT22;58269;52.246;21.104;2022-12-07T01:06:04;7.94;62.04
70695;DHT22;58269;52.246;21.104;2022-12-07T01:08:06;8.02;62.07
70695;DHT22;58269;52.246;21.104;2022-12-07T01:10:08;8.04;61.96
70695;DHT22;58269;52.246;21.104;2022-12-07T01:12:09;8.08;61.94
70695;DHT22;58269;52.246;21.104;2022-12-07T01:14:10;8.10;61.92
70695;DHT22;58269;52.246;21.104;2022-12-07T01:16:13;8.12;61.87
70695;DHT22;58269;52.246;21.104;2022-12-07T01:18:15;8.13;61.87
70695;DHT22;58269;52.246;21.104;2022-12-07T01:20:16;8.13;61.87
70695;DHT22;58269;52.246;21.104;2022-12-07T01:22:18;8.22;61.86
70695;DHT22;58269;52.246;21.104;2022-12-07T01:24:19;8.23;61.98
70695;DHT22;58269;52.246;21.104;2022-12-07T01:26:22;8.25;61.84
70695;DHT22;58269;52.246;21.104;2022-12-07T01:28:24;8.23;61.89
70695;DHT22;58269;52.246;21.104;2022-12-07T01:30:25;8.22;61.85
70695;DHT22;58269;52.246;21.104;2022-12-07T01:32:26;8.23;61.83
70695;DHT22;58269;52.246;21.104;2022-12-07T01:34:28;8.17;61.95
70695;DHT22;58269;52.246;21.104;2022-12-07T01:36:32;8.19;61.93
70695;DHT22;58269;52.246;21.104;2022-12-07T01:38:33;8.22;61.96
70695;DHT22;58269;52.246;21.104;2022-12-07T01:40:34;8.23;61.92
70695;DHT22;58269;52.246;21.104;2022-12-07T01:42:36;8.25;61.88
70695;DHT22;58269;52.246;21.104;2022-12-07T01:47:15;8.22;61.85
70695;DHT22;58269;52.246;21.104;2022-12-07T01:51:27;8.22;61.81
70695;DHT22;58269;52.246;21.104;2022-12-07T01:53:29;8.22;61.77
70695;DHT22;58269;52.246;21.104;2022-12-07T01:55:31;8.25;61.86
70695;DHT22;58269;52.246;21.104;2022-12-07T01:57:34;8.23;61.75
70695;DHT22;58269;52.246;21.104;2022-12-07T01:59:36;8.23;61.75
70695;DHT22;58269;52.246;21.104;2022-12-07T02:01:37;8.23;61.66
70695;DHT22;58269;52.246;21.104;2022-12-07T02:03:40;8.25;61.82
70695;DHT22;58269;52.246;21.104;2022-12-07T02:05:42;8.27;61.78
70695;DHT22;58269;52.246;21.104;2022-12-07T02:07:43;8.22;61.88
70695;DHT22;58269;52.246;21.104;2022-12-07T02:09:45;8.23;61.88
70695;DHT22;58269;52.246;21.104;2022-12-07T02:11:46;8.23;61.77
70695;DHT22;58269;52.246;21.104;2022-12-07T02:13:48;8.20;61.83
70695;DHT22;58269;52.246;21.104;2022-12-07T02:20:30;8.19;61.99
70695;DHT22;58269;52.246;21.104;2022-12-07T02:23:04;8.19;62.21
70695;DHT22;58269;52.246;21.104;2022-12-07T02:29:49;8.23;62.14
70695;DHT22;58269;52.246;21.104;2022-12-07T02:34:29;8.04;62.18
70695;DHT22;58269;52.246;21.104;2022-12-07T02:36:31;7.96;62.43
70695;DHT22;58269;52.246;21.104;2022-12-07T02:38:50;7.95;62.48
70695;DHT22;58269;52.246;21.104;2022-12-07T02:40:53;7.96;62.52
70695;DHT22;58269;52.246;21.104;2022-12-07T02:43:02;7.94;62.68
70695;DHT22;58269;52.246;21.104;2022-12-07T02:45:00;7.94;62.76
70695;DHT22;58269;52.246;21.104;2022-12-07T02:47:03;7.96;62.68
70695;DHT22;58269;52.246;21.104;2022-12-07T02:49:06;7.94;62.75
70695;DHT22;58269;52.246;21.104;2022-12-07T02:51:07;7.91;62.70
70695;DHT22;58269;52.246;21.104;2022-12-07T02:53:29;7.95;62.75
70695;DHT22;58269;52.246;21.104;2022-12-07T02:55:34;7.99;62.73
70695;DHT22;58269;52.246;21.104;2022-12-07T03:00:18;8.08;62.68
70695;DHT22;58269;52.246;21.104;2022-12-07T03:07:00;7.98;62.50
70695;DHT22;58269;52.246;21.104;2022-12-07T03:11:24;7.91;62.69
70695;DHT22;58269;52.246;21.104;2022-12-07T03:16:20;7.80;62.61
70695;DHT22;58269;52.246;21.104;2022-12-07T03:18:23;7.78;62.63
70695;DHT22;58269;52.246;21.104;2022-12-07T03:20:25;7.68;62.88
70695;DHT22;58269;52.246;21.104;2022-12-07T03:22:28;7.69;62.73
70695;DHT22;58269;52.246;21.104;2022-12-07T03:24:46;7.72;62.69
70695;DHT22;58269;52.246;21.104;2022-12-07T03:26:53;7.62;63.02
70695;DHT22;58269;52.246;21.104;2022-12-07T03:28:54;7.62;62.99
70695;DHT22;58269;52.246;21.104;2022-12-07T03:31:00;7.59;62.96
70695;DHT22;58269;52.246;21.104;2022-12-07T03:33:17;7.58;63.01
70695;DHT22;58269;52.246;21.104;2022-12-07T03:39:39;7.57;63.02
70695;DHT22;58269;52.246;21.104;2022-12-07T03:41:40;7.61;62.96
70695;DHT22;58269;52.246;21.104;2022-12-07T03:43:41;7.65;62.94
70695;DHT22;58269;52.246;21.104;2022-12-07T03:45:51;7.69;62.80
70695;DHT22;58269;52.246;21.104;2022-12-07T03:48:08;7.71;62.81
70695;DHT22;58269;52.246;21.104;2022-12-07T03:52:41;7.82;62.72
70695;DHT22;58269;52.246;21.104;2022-12-07T03:56:54;7.72;62.65
70695;DHT22;58269;52.246;21.104;2022-12-07T03:58:56;7.66;62.67
70695;DHT22;58269;52.246;21.104;2022-12-07T04:00:57;7.55;63.07
70695;DHT22;58269;52.246;21.104;2022-12-07T04:02:58;7.58;62.96
70695;DHT22;58269;52.246;21.104;2022-12-07T04:05:01;7.58;62.91
70695;DHT22;58269;52.246;21.104;2022-12-07T04:07:02;7.44;63.26
70695;DHT22;58269;52.246;21.104;2022-12-07T04:09:03;7.41;63.27
70695;DHT22;58269;52.246;21.104;2022-12-07T04:11:04;7.40;63.17
70695;DHT22;58269;52.246;21.104;2022-12-07T04:13:06;7.43;63.16
70695;DHT22;58269;52.246;21.104;2022-12-07T04:15:08;7.38;63.22
70695;DHT22;58269;52.246;21.104;2022-12-07T04:17:09;7.41;63.27
70695;DHT22;58269;52.246;21.104;2022-12-07T04:19:10;7.26;63.77
70695;DHT22;58269;52.246;21.104;2022-12-07T04:21:12;7.27;63.58
70695;DHT22;58269;52.246;21.104;2022-12-07T04:23:13;7.27;63.59
70695;DHT22;58269;52.246;21.104;2022-12-07T04:25:14;7.13;64.05
70695;DHT22;58269;52.246;21.104;2022-12-07T04:27:16;7.13;63.70
70695;DHT22;58269;52.246;21.104;2022-12-07T04:29:17;7.14;63.94
70695;DHT22;58269;52.246;21.104;2022-12-07T04:31:19;7.09;64.12
70695;DHT22;58269;52.246;21.104;2022-12-07T04:33:20;7.17;63.97
70695;DHT22;58269;52.246;21.104;2022-12-07T04:35:21;7.19;64.08
70695;DHT22;58269;52.246;21.104;2022-12-07T04:37:23;7.10;64.17
70695;DHT22;58269;52.246;21.104;2022-12-07T04:41:29;7.09;63.96
70695;DHT22;58269;52.246;21.104;2022-12-07T04:43:30;7.06;64.15
70695;DHT22;58269;52.246;21.104;2022-12-07T04:45:32;7.12;64.01
70695;DHT22;58269;52.246;21.104;2022-12-07T04:47:33;7.13;64.08
70695;DHT22;58269;52.246;21.104;2022-12-07T04:49:34;7.19;64.05
70695;DHT22;58269;52.246;21.104;2022-12-07T04:51:36;7.16;64.16
70695;DHT22;58269;52.246;21.104;2022-12-07T04:53:37;7.27;64.01
70695;DHT22;58269;52.246;21.104;2022-12-07T04:55:39;7.31;63.83
70695;DHT22;58269;52.246;21.104;2022-12-07T04:57:40;7.38;63.53
70695;DHT22;58269;52.246;21.104;2022-12-07T04:59:41;7.45;63.62
70695;DHT22;58269;52.246;21.104;2022-12-07T05:01:43;7.33;63.66
70695;DHT22;58269;52.246;21.104;2022-12-07T05:03:46;7.41;63.38
70695;DHT22;58269;52.246;21.104;2022-12-07T05:05:47;7.44;63.41
70695;DHT22;58269;52.246;21.104;2022-12-07T05:07:49;7.34;63.41
70695;DHT22;58269;52.246;21.104;2022-12-07T05:09:50;7.31;63.42
70695;DHT22;58269;52.246;21.104;2022-12-07T05:11:51;7.35;63.41
70695;DHT22;58269;52.246;21.104;2022-12-07T05:13:53;7.35;63.50
70695;DHT22;58269;52.246;21.104;2022-12-07T05:15:54;7.40;63.42
70695;DHT22;58269;52.246;21.104;2022-12-07T05:17:55;7.44;63.32
70695;DHT22;58269;52.246;21.104;2022-12-07T05:19:57;7.41;63.12
70695;DHT22;58269;52.246;21.104;2022-12-07T05:21:58;7.38;63.21
70695;DHT22;58269;52.246;21.104;2022-12-07T05:23:59;7.40;63.08
70695;DHT22;58269;52.246;21.104;2022-12-07T05:26:00;7.43;63.08
70695;DHT22;58269;52.246;21.104;2022-12-07T05:28:02;7.41;63.01
70695;DHT22;58269;52.246;21.104;2022-12-07T05:30:06;7.33;63.07
70695;DHT22;58269;52.246;21.104;2022-12-07T05:32:07;7.38;63.16
70695;DHT22;58269;52.246;21.104;2022-12-07T05:34:09;7.45;63.18
70695;DHT22;58269;52.246;21.104;2022-12-07T05:36:10;7.45;62.94
70695;DHT22;58269;52.246;21.104;2022-12-07T05:38:11;7.53;62.99
70695;DHT22;58269;52.246;21.104;2022-12-07T05:40:14;7.35;63.16
70695;DHT22;58269;52.246;21.104;2022-12-07T05:42:15;7.31;63.01
70695;DHT22;58269;52.246;21.104;2022-12-07T05:44:18;7.29;63.14
70695;DHT22;58269;52.246;21.104;2022-12-07T05:46:19;7.22;63.25
70695;DHT22;58269;52.246;21.104;2022-12-07T05:48:20;7.13;63.61
70695;DHT22;58269;52.246;21.104;2022-12-07T05:50:21;7.12;63.38
70695;DHT22;58269;52.246;21.104;2022-12-07T05:52:24;7.04;63.55
70695;DHT22;58269;52.246;21.104;2022-12-07T05:54:26;7.03;63.63
70695;DHT22;58269;52.246;21.104;2022-12-07T05:56:28;7.02;63.63
70695;DHT22;58269;52.246;21.104;2022-12-07T05:58:29;7.04;63.50
70695;DHT22;58269;52.246;21.104;2022-12-07T06:00:48;6.99;63.60
70695;DHT22;58269;52.246;21.104;2022-12-07T06:02:49;6.99;63.64
70695;DHT22;58269;52.246;21.104;2022-12-07T06:04:51;7.04;63.44
70695;DHT22;58269;52.246;21.104;2022-12-07T06:06:52;7.07;63.50
70695;DHT22;58269;52.246;21.104;2022-12-07T06:08:53;7.14;63.38
70695;DHT22;58269;52.246;21.104;2022-12-07T06:10:55;7.14;63.27
70695;DHT22;58269;52.246;21.104;2022-12-07T06:12:58;7.17;63.21
70695;DHT22;58269;52.246;21.104;2022-12-07T06:14:59;7.13;63.49
70695;DHT22;58269;52.246;21.104;2022-12-07T06:17:00;7.13;63.26
70695;DHT22;58269;52.246;21.104;2022-12-07T06:19:02;7.13;63.26
70695;DHT22;58269;52.246;21.104;2022-12-07T06:21:03;7.17;63.19
70695;DHT22;58269;52.246;21.104;2022-12-07T06:23:05;7.16;63.17
70695;DHT22;58269;52.246;21.104;2022-12-07T06:25:07;7.09;63.25
70695;DHT22;58269;52.246;21.104;2022-12-07T06:27:09;7.14;63.15
70695;DHT22;58269;52.246;21.104;2022-12-07T06:29:10;7.16;63.12
70695;DHT22;58269;52.246;21.104;2022-12-07T06:31:12;7.22;63.13
70695;DHT22;58269;52.246;21.104;2022-12-07T06:33:13;7.26;62.97
70695;DHT22;58269;52.246;21.104;2022-12-07T06:35:14;7.29;62.91
70695;DHT22;58269;52.246;21.104;2022-12-07T06:37:16;7.26;62.78
70695;DHT22;58269;52.246;21.104;2022-12-07T06:39:19;7.19;62.76
70695;DHT22;58269;52.246;21.104;2022-12-07T06:41:20;7.23;62.64
70695;DHT22;58269;52.246;21.104;2022-12-07T06:43:21;7.24;62.57
70695;DHT22;58269;52.246;21.104;2022-12-07T06:45:22;7.20;62.58
70695;DHT22;58269;52.246;21.104;2022-12-07T06:47:24;7.19;62.72
70695;DHT22;58269;52.246;21.104;2022-12-07T06:49:25;7.19;62.79
70695;DHT22;58269;52.246;21.104;2022-12-07T06:51:27;7.23;62.74
70695;DHT22;58269;52.246;21.104;2022-12-07T06:53:28;7.27;62.72
70695;DHT22;58269;52.246;21.104;2022-12-07T06:55:30;7.24;62.59
70695;DHT22;58269;52.246;21.104;2022-12-07T06:57:31;7.27;62.53
70695;DHT22;58269;52.246;21.104;2022-12-07T06:59:32;7.22;62.53
70695;DHT22;58269;52.246;21.104;2022-12-07T07:01:34;7.31;62.54
70695;DHT22;58269;52.246;21.104;2022-12-07T07:03:35;7.30;62.45
70695;DHT22;58269;52.246;21.104;2022-12-07T07:05:37;7.29;62.46
70695;DHT22;58269;52.246;21.104;2022-12-07T07:07:38;7.23;62.41
70695;DHT22;58269;52.246;21.104;2022-12-07T07:09:39;7.19;62.60
70695;DHT22;58269;52.246;21.104;2022-12-07T07:11:41;7.14;62.62
70695;DHT22;58269;52.246;21.104;2022-12-07T07:13:42;7.22;62.67
70695;DHT22;58269;52.246;21.104;2022-12-07T07:15:43;7.19;62.69
70695;DHT22;58269;52.246;21.104;2022-12-07T07:17:44;7.19;62.69
70695;DHT22;58269;52.246;21.104;2022-12-07T07:19:45;7.13;62.66
70695;DHT22;58269;52.246;21.104;2022-12-07T07:21:47;7.17;62.58
70695;DHT22;58269;52.246;21.104;2022-12-07T07:23:48;7.12;62.64
70695;DHT22;58269;52.246;21.104;2022-12-07T07:25:49;7.20;62.63
70695;DHT22;58269;52.246;21.104;2022-12-07T07:27:51;7.24;62.58
70695;DHT22;58269;52.246;21.104;2022-12-07T07:29:52;7.06;62.93
70695;DHT22;58269;52.246;21.104;2022-12-07T07:31:54;7.13;62.68
70695;DHT22;58269;52.246;21.104;2022-12-07T07:33:55;7.16;62.54
70695;DHT22;58269;52.246;21.104;2022-12-07T07:35:56;7.06;62.84
70695;DHT22;58269;52.246;21.104;2022-12-07T07:37:57;7.03;62.84
70695;DHT22;58269;52.246;21.104;2022-12-07T07:39:59;7.04;62.83
70695;DHT22;58269;52.246;21.104;2022-12-07T07:42:00;7.06;62.76
70695;DHT22;58269;52.246;21.104;2022-12-07T07:44:01;7.06;62.90
70695;DHT22;58269;52.246;21.104;2022-12-07T07:46:03;7.10;62.80
70695;DHT22;58269;52.246;21.104;2022-12-07T07:48:04;7.16;62.76
70695;DHT22;58269;52.246;21.104;2022-12-07T07:50:06;7.17;62.72
70695;DHT22;58269;52.246;21.104;2022-12-07T07:52:08;7.12;62.84
70695;DHT22;58269;52.246;21.104;2022-12-07T07:54:09;7.06;63.01
70695;DHT22;58269;52.246;21.104;2022-12-07T07:56:10;7.14;62.84
70695;DHT22;58269;52.246;21.104;2022-12-07T07:58:11;7.22;62.75
70695;DHT22;58269;52.246;21.104;2022-12-07T08:00:14;7.16;62.80
70695;DHT22;58269;52.246;21.104;2022-12-07T08:02:16;7.13;62.87
70695;DHT22;58269;52.246;21.104;2022-12-07T08:04:18;7.16;62.82
70695;DHT22;58269;52.246;21.104;2022-12-07T08:06:19;7.14;62.85
70695;DHT22;58269;52.246;21.104;2022-12-07T08:08:21;7.07;63.18
70695;DHT22;58269;52.246;21.104;2022-12-07T08:10:22;7.03;63.39
70695;DHT22;58269;52.246;21.104;2022-12-07T08:12:23;7.10;63.04
70695;DHT22;58269;52.246;21.104;2022-12-07T08:14:24;7.17;63.03
70695;DHT22;58269;52.246;21.104;2022-12-07T08:16:26;7.19;62.99
70695;DHT22;58269;52.246;21.104;2022-12-07T08:18:27;7.04;63.55
70695;DHT22;58269;52.246;21.104;2022-12-07T08:20:30;7.14;63.29
70695;DHT22;58269;52.246;21.104;2022-12-07T08:22:32;7.09;63.44
70695;DHT22;58269;52.246;21.104;2022-12-07T08:24:34;7.06;63.49
70695;DHT22;58269;52.246;21.104;2022-12-07T08:26:36;7.03;63.56
70695;DHT22;58269;52.246;21.104;2022-12-07T08:28:37;7.06;63.48
70695;DHT22;58269;52.246;21.104;2022-12-07T08:30:39;7.10;63.47
70695;DHT22;58269;52.246;21.104;2022-12-07T08:32:40;7.13;63.58
70695;DHT22;58269;52.246;21.104;2022-12-07T08:34:41;7.10;63.64
70695;DHT22;58269;52.246;21.104;2022-12-07T08:36:43;7.12;63.66
70695;DHT22;58269;52.246;21.104;2022-12-07T08:38:44;7.17;63.55
70695;DHT22;58269;52.246;21.104;2022-12-07T08:40:54;7.17;63.52
70695;DHT22;58269;52.246;21.104;2022-12-07T08:42:56;7.23;63.51
70695;DHT22;58269;52.246;21.104;2022-12-07T08:44:58;7.27;63.45
70695;DHT22;58269;52.246;21.104;2022-12-07T08:47:01;7.19;63.50
70695;DHT22;58269;52.246;21.104;2022-12-07T08:49:09;7.27;63.76
70695;DHT22;58269;52.246;21.104;2022-12-07T08:51:08;7.31;63.65
70695;DHT22;58269;52.246;21.104;2022-12-07T08:53:09;7.23;64.31
70695;DHT22;58269;52.246;21.104;2022-12-07T08:55:11;7.29;63.97
70695;DHT22;58269;52.246;21.104;2022-12-07T08:57:12;7.34;63.84
70695;DHT22;58269;52.246;21.104;2022-12-07T08:59:14;7.38;63.77
70695;DHT22;58269;52.246;21.104;2022-12-07T09:01:17;7.40;63.72
70695;DHT22;58269;52.246;21.104;2022-12-07T09:03:18;7.33;64.16
70695;DHT22;58269;52.246;21.104;2022-12-07T09:05:20;7.31;64.23
70695;DHT22;58269;52.246;21.104;2022-12-07T09:07:24;7.35;64.14
70695;DHT22;58269;52.246;21.104;2022-12-07T09:09:26;7.41;64.05
70695;DHT22;58269;52.246;21.104;2022-12-07T09:11:27;7.45;63.86
70695;DHT22;58269;52.246;21.104;2022-12-07T09:13:28;7.44;63.92
70695;DHT22;58269;52.246;21.104;2022-12-07T09:15:30;7.45;63.84
70695;DHT22;58269;52.246;21.104;2022-12-07T09:17:32;7.53;63.73
70695;DHT22;58269;52.246;21.104;2022-12-07T09:19:34;7.38;64.03
70695;DHT22;58269;52.246;21.104;2022-12-07T09:21:35;7.40;63.80
70695;DHT22;58269;52.246;21.104;2022-12-07T09:23:36;7.44;63.73
70695;DHT22;58269;52.246;21.104;2022-12-07T09:25:38;7.48;63.76
70695;DHT22;58269;52.246;21.104;2022-12-07T09:27:41;7.41;63.75
70695;DHT22;58269;52.246;21.104;2022-12-07T09:29:42;7.45;63.62
70695;DHT22;58269;52.246;21.104;2022-12-07T09:31:43;7.47;63.61
70695;DHT22;58269;52.246;21.104;2022-12-07T09:33:45;7.53;63.52
70695;DHT22;58269;52.246;21.104;2022-12-07T09:35:47;7.44;63.64
70695;DHT22;58269;52.246;21.104;2022-12-07T09:37:48;7.47;63.64
70695;DHT22;58269;52.246;21.104;2022-12-07T09:39:50;7.43;63.59
70695;DHT22;58269;52.246;21.104;2022-12-07T09:41:51;7.33;63.64
70695;DHT22;58269;52.246;21.104;2022-12-07T09:43:53;7.41;63.45
70695;DHT22;58269;52.246;21.104;2022-12-07T09:45:56;7.47;63.43
70695;DHT22;58269;52.246;21.104;2022-12-07T09:47:58;7.54;63.39
70695;DHT22;58269;52.246;21.104;2022-12-07T09:50:06;7.62;63.30
70695;DHT22;58269;52.246;21.104;2022-12-07T09:54:16;7.72;63.10
70695;DHT22;58269;52.246;21.104;2022-12-07T09:56:18;7.74;62.98
70695;DHT22;58269;52.246;21.104;2022-12-07T09:58:23;7.78;62.93
70695;DHT22;58269;52.246;21.104;2022-12-07T10:00:25;7.80;62.80
70695;DHT22;58269;52.246;21.104;2022-12-07T10:02:39;7.85;62.79
70695;DHT22;58269;52.246;21.104;2022-12-07T10:04:42;7.91;62.68
70695;DHT22;58269;52.246;21.104;2022-12-07T10:06:45;7.94;62.51
70695;DHT22;58269;52.246;21.104;2022-12-07T10:08:48;7.99;62.50
70695;DHT22;58269;52.246;21.104;2022-12-07T10:10:54;8.04;62.43
70695;DHT22;58269;52.246;21.104;2022-12-07T10:13:02;8.05;62.24
70695;DHT22;58269;52.246;21.104;2022-12-07T10:15:04;8.05;62.06
70695;DHT22;58269;52.246;21.104;2022-12-07T10:17:30;7.89;61.58
70695;DHT22;58269;52.246;21.104;2022-12-07T10:19:32;7.89;61.55
70695;DHT22;58269;52.246;21.104;2022-12-07T10:21:34;7.84;61.58
70695;DHT22;58269;52.246;21.104;2022-12-07T10:23:37;7.91;61.60
70695;DHT22;58269;52.246;21.104;2022-12-07T10:25:39;7.95;61.67
70695;DHT22;58269;52.246;21.104;2022-12-07T10:27:41;8.02;61.66
70695;DHT22;58269;52.246;21.104;2022-12-07T10:29:46;8.08;61.61
70695;DHT22;58269;52.246;21.104;2022-12-07T10:31:47;8.13;61.55
70695;DHT22;58269;52.246;21.104;2022-12-07T10:33:54;8.17;61.39
70695;DHT22;58269;52.246;21.104;2022-12-07T10:35:57;8.26;61.43
70695;DHT22;58269;52.246;21.104;2022-12-07T10:37:59;8.27;61.22
70695;DHT22;58269;52.246;21.104;2022-12-07T10:40:00;8.20;60.83
70695;DHT22;58269;52.246;21.104;2022-12-07T10:42:03;8.19;60.83
70695;DHT22;58269;52.246;21.104;2022-12-07T10:44:04;8.22;60.87
70695;DHT22;58269;52.246;21.104;2022-12-07T11:00:18;8.09;60.70
70695;DHT22;58269;52.246;21.104;2022-12-07T11:11:51;7.96;60.85
70695;DHT22;58269;52.246;21.104;2022-12-07T11:18:39;8.09;60.74
70695;DHT22;58269;52.246;21.104;2022-12-07T11:20:44;8.05;60.75
70695;DHT22;58269;52.246;21.104;2022-12-07T11:27:32;7.98;60.71
70695;DHT22;58269;52.246;21.104;2022-12-07T11:29:47;8.04;60.61
70695;DHT22;58269;52.246;21.104;2022-12-07T11:31:56;8.10;60.60
70695;DHT22;58269;52.246;21.104;2022-12-07T11:34:07;8.13;60.62
70695;DHT22;58269;52.246;21.104;2022-12-07T11:38:21;8.26;60.60
70695;DHT22;58269;52.246;21.104;2022-12-07T11:40:28;8.32;60.58
70695;DHT22;58269;52.246;21.104;2022-12-07T11:42:42;8.32;60.39
70695;DHT22;58269;52.246;21.104;2022-12-07T11:44:50;8.30;60.39
70695;DHT22;58269;52.246;21.104;2022-12-07T11:49:08;8.25;60.38
70695;DHT22;58269;52.246;21.104;2022-12-07T11:51:09;8.17;60.45
70695;DHT22;58269;52.246;21.104;2022-12-07T11:53:20;8.22;60.42
70695;DHT22;58269;52.246;21.104;2022-12-07T11:57:39;8.25;60.49
70695;DHT22;58269;52.246;21.104;2022-12-07T11:59:43;8.29;60.47
70695;DHT22;58269;52.246;21.104;2022-12-07T12:01:57;8.15;60.42
70695;DHT22;58269;52.246;21.104;2022-12-07T12:04:13;8.19;60.53
70695;DHT22;58269;52.246;21.104;2022-12-07T12:06:10;8.12;60.51
70695;DHT22;58269;52.246;21.104;2022-12-07T12:08:14;8.08;60.71
70695;DHT22;58269;52.246;21.104;2022-12-07T12:10:24;8.15;60.68
70695;DHT22;58269;52.246;21.104;2022-12-07T12:19:42;8.41;60.28
70695;DHT22;58269;52.246;21.104;2022-12-07T12:21:44;8.40;60.25
70695;DHT22;58269;52.246;21.104;2022-12-07T12:23:56;8.41;60.12
70695;DHT22;58269;52.246;21.104;2022-12-07T12:26:01;8.40;60.00
70695;DHT22;58269;52.246;21.104;2022-12-07T12:28:03;8.26;60.50
70695;DHT22;58269;52.246;21.104;2022-12-07T12:30:23;8.27;60.58
70695;DHT22;58269;52.246;21.104;2022-12-07T12:32:18;8.22;60.56
70695;DHT22;58269;52.246;21.104;2022-12-07T12:36:50;7.86;61.53
70695;DHT22;58269;52.246;21.104;2022-12-07T12:43:51;7.86;61.88
70695;DHT22;58269;52.246;21.104;2022-12-07T12:48:28;7.75;62.50
70695;DHT22;58269;52.246;21.104;2022-12-07T12:50:33;7.86;62.03
70695;DHT22;58269;52.246;21.104;2022-12-07T12:55:01;7.84;62.23
70695;DHT22;58269;52.246;21.104;2022-12-07T12:59:31;7.98;61.93
70695;DHT22;58269;52.246;21.104;2022-12-07T13:01:42;8.04;61.86
70695;DHT22;58269;52.246;21.104;2022-12-07T13:03:40;8.16;61.70
70695;DHT22;58269;52.246;21.104;2022-12-07T13:05:44;8.17;61.73
70695;DHT22;58269;52.246;21.104;2022-12-07T13:09:55;8.27;61.11
70695;DHT22;58269;52.246;21.104;2022-12-07T13:12:05;8.05;61.45
70695;DHT22;58269;52.246;21.104;2022-12-07T13:16:41;7.84;61.92
70695;DHT22;58269;52.246;21.104;2022-12-07T13:18:43;7.88;61.60
70695;DHT22;58269;52.246;21.104;2022-12-07T13:20:47;7.88;61.59
70695;DHT22;58269;52.246;21.104;2022-12-07T13:22:49;7.94;61.68
70695;DHT22;58269;52.246;21.104;2022-12-07T13:24:56;7.92;61.52
70695;DHT22;58269;52.246;21.104;2022-12-07T13:26:57;7.75;61.75
70695;DHT22;58269;52.246;21.104;2022-12-07T13:29:17;7.77;61.72
70695;DHT22;58269;52.246;21.104;2022-12-07T13:31:47;7.77;61.64
70695;DHT22;58269;52.246;21.104;2022-12-07T13:33:52;7.72;61.43
70695;DHT22;58269;52.246;21.104;2022-12-07T13:35:54;7.71;61.78
70695;DHT22;58269;52.246;21.104;2022-12-07T13:37:56;7.68;61.85
70695;DHT22;58269;52.246;21.104;2022-12-07T13:39:59;7.58;62.19
70695;DHT22;58269;52.246;21.104;2022-12-07T13:42:07;7.34;62.77
70695;DHT22;58269;52.246;21.104;2022-12-07T13:44:11;7.34;62.83
70695;DHT22;58269;52.246;21.104;2022-12-07T13:46:14;7.27;62.98
70695;DHT22;58269;52.246;21.104;2022-12-07T13:48:28;7.23;62.88
70695;DHT22;58269;52.246;21.104;2022-12-07T13:50:30;7.27;62.86
70695;DHT22;58269;52.246;21.104;2022-12-07T13:52:32;7.31;62.61
70695;DHT22;58269;52.246;21.104;2022-12-07T13:54:33;7.37;62.90
70695;DHT22;58269;52.246;21.104;2022-12-07T13:56:37;7.35;62.69
70695;DHT22;58269;52.246;21.104;2022-12-07T13:58:40;7.38;62.74
70695;DHT22;58269;52.246;21.104;2022-12-07T14:00:42;7.40;62.74
70695;DHT22;58269;52.246;21.104;2022-12-07T14:05:14;7.33;63.03
70695;DHT22;58269;52.246;21.104;2022-12-07T14:07:27;7.43;62.22
70695;DHT22;58269;52.246;21.104;2022-12-07T14:09:29;7.38;63.04
70695;DHT22;58269;52.246;21.104;2022-12-07T14:11:31;7.16;63.52
70695;DHT22;58269;52.246;21.104;2022-12-07T14:13:37;7.06;63.43
70695;DHT22;58269;52.246;21.104;2022-12-07T14:15:40;7.04;63.67
70695;DHT22;58269;52.246;21.104;2022-12-07T14:17:50;7.06;63.56
70695;DHT22;58269;52.246;21.104;2022-12-07T14:19:59;6.91;64.11
70695;DHT22;58269;52.246;21.104;2022-12-07T14:22:08;6.89;64.02
70695;DHT22;58269;52.246;21.104;2022-12-07T14:26:23;7.00;64.20
70695;DHT22;58269;52.246;21.104;2022-12-07T14:28:28;7.09;63.67
70695;DHT22;58269;52.246;21.104;2022-12-07T14:30:31;7.09;63.46
70695;DHT22;58269;52.246;21.104;2022-12-07T14:32:35;7.12;63.34
70695;DHT22;58269;52.246;21.104;2022-12-07T14:34:36;7.17;63.08
70695;DHT22;58269;52.246;21.104;2022-12-07T14:36:38;7.22;63.01
70695;DHT22;58269;52.246;21.104;2022-12-07T14:38:39;7.07;63.01
70695;DHT22;58269;52.246;21.104;2022-12-07T14:40:41;7.14;62.77
70695;DHT22;58269;52.246;21.104;2022-12-07T14:42:43;7.20;62.74
70695;DHT22;58269;52.246;21.104;2022-12-07T14:44:46;7.26;62.54
70695;DHT22;58269;52.246;21.104;2022-12-07T14:46:48;7.27;62.34
70695;DHT22;58269;52.246;21.104;2022-12-07T14:48:49;7.29;62.19
70695;DHT22;58269;52.246;21.104;2022-12-07T14:50:52;7.33;62.30